Time;durP1;ratioP1;P1;durP2;ratioP2;P2;SDS_P1;SDS_P2;PMS_P1;PMS_P2;Temp;Humidity;BMP_temperature;BMP_pressure;BME280_temperature;BME280_humidity;BME280_pressure;Samples;Min_cycle;Max_cycle;Signal;HPM_P1;HPM_P2
2022/08/24 00:00:16;;;;;;;17.90;14.87;;;20.90;99.90;;;;;;5036781;28;20049;-69
2022/08/24 00:02:42;;;;;;;19.30;14.17;;;20.90;99.90;;;;;;5036987;28;20397;-69
2022/08/24 00:05:09;;;;;;;15.67;13.87;;;20.90;99.90;;;;;;5036459;28;20061;-69
2022/08/24 00:07:34;;;;;;;16.87;13.90;;;20.90;99.90;;;;;;5036267;28;20037;-69
2022/08/24 00:10:01;;;;;;;17.43;14.47;;;20.90;99.90;;;;;;5036362;28;20051;-69
2022/08/24 00:12:27;;;;;;;17.53;13.90;;;20.80;99.90;;;;;;5037040;28;20427;-69
2022/08/24 00:14:53;;;;;;;17.43;14.63;;;20.80;99.90;;;;;;5036224;28;20045;-69
2022/08/24 00:17:19;;;;;;;17.70;14.47;;;20.70;99.90;;;;;;5036126;28;20081;-69
2022/08/24 00:19:46;;;;;;;17.67;14.13;;;20.70;99.90;;;;;;5036131;28;20081;-69
2022/08/24 00:22:12;;;;;;;17.73;14.70;;;20.70;99.90;;;;;;5036114;28;20052;-69
2022/08/24 00:24:39;;;;;;;18.27;15.63;;;20.70;99.90;;;;;;5036025;28;20473;-69
2022/08/24 00:27:06;;;;;;;16.70;14.93;;;20.60;99.90;;;;;;5035844;28;20477;-69
2022/08/24 00:29:32;;;;;;;17.50;15.60;;;20.60;99.90;;;;;;5035917;28;20144;-69
2022/08/24 00:31:58;;;;;;;18.27;15.83;;;20.60;99.90;;;;;;5035864;28;20052;-69
2022/08/24 00:34:25;;;;;;;14.83;13.33;;;20.60;99.90;;;;;;5035510;28;20046;-69
2022/08/24 00:36:52;;;;;;;18.43;15.30;;;20.50;99.90;;;;;;5035781;28;20129;-69
2022/08/24 00:39:18;;;;;;;17.83;14.53;;;20.50;99.90;;;;;;5036290;28;20049;-69
2022/08/24 00:41:47;;;;;;;17.67;14.37;;;20.50;99.90;;;;;;5035738;28;20085;-69
2022/08/24 00:44:15;;;;;;;18.03;14.80;;;20.40;99.90;;;;;;5036241;28;20056;-69
2022/08/24 00:46:57;;;;;;;15.93;13.50;;;20.40;99.90;;;;;;5035811;28;20046;-69
2022/08/24 00:50:02;;;;;;;18.30;14.27;;;20.40;99.90;;;;;;5035530;28;20104;-69
2022/08/24 00:52:39;;;;;;;18.15;13.57;;;20.40;99.90;;;;;;5031248;28;20053;-69
2022/08/24 00:55:22;;;;;;;16.37;12.97;;;20.40;99.90;;;;;;5035589;28;20041;-68
2022/08/24 00:57:54;;;;;;;16.10;12.70;;;20.30;99.90;;;;;;5035438;28;20053;-69
2022/08/24 01:00:27;;;;;;;15.77;13.00;;;20.30;99.90;;;;;;5035425;28;20048;-69
2022/08/24 01:03:03;;;;;;;13.87;12.37;;;20.30;99.90;;;;;;5035375;28;20053;-69
2022/08/24 01:05:33;;;;;;;15.90;13.57;;;20.30;99.90;;;;;;5035298;28;20060;-69
2022/08/24 01:08:00;;;;;;;15.73;12.50;;;20.30;99.90;;;;;;5035269;28;20087;-68
2022/08/24 01:10:31;;;;;;;16.33;14.10;;;20.20;99.90;;;;;;5035960;28;20045;-69
2022/08/24 01:13:00;;;;;;;17.10;14.90;;;20.20;99.90;;;;;;5035942;28;20048;-69
2022/08/24 01:15:27;;;;;;;15.10;13.20;;;20.20;99.90;;;;;;5035574;28;20441;-69
2022/08/24 01:20:37;;;;;;;17.23;14.25;;;20.20;99.90;;;;;;5035018;28;20088;-68
2022/08/24 01:23:15;;;;;;;16.27;13.33;;;20.20;99.90;;;;;;5034630;28;20096;-69
2022/08/24 01:25:43;;;;;;;18.47;14.27;;;20.10;99.90;;;;;;5034877;28;20501;-69
2022/08/24 01:28:19;;;;;;;16.37;14.67;;;20.10;99.90;;;;;;5034768;28;20084;-69
2022/08/24 01:30:45;;;;;;;15.63;14.13;;;20.10;99.90;;;;;;5034799;28;20048;-69
2022/08/24 01:33:22;;;;;;;16.53;14.70;;;20.00;99.90;;;;;;5035540;28;20053;-69
2022/08/24 01:35:48;;;;;;;17.63;15.90;;;20.00;99.90;;;;;;5034733;28;20049;-69
2022/08/24 01:38:15;;;;;;;17.57;15.80;;;20.00;99.90;;;;;;5034315;28;20489;-69
2022/08/24 01:40:47;;;;;;;19.23;17.17;;;20.00;99.90;;;;;;5033931;28;20045;-69
2022/08/24 01:43:13;;;;;;;21.37;17.20;;;20.00;99.90;;;;;;5034632;28;20057;-69
2022/08/24 01:45:40;;;;;;;20.60;16.87;;;19.90;99.90;;;;;;5034463;28;20095;-69
2022/08/24 01:48:06;;;;;;;20.30;18.30;;;19.90;99.90;;;;;;5034401;28;20053;-69
2022/08/24 01:50:32;;;;;;;19.23;17.43;;;19.90;99.90;;;;;;5034879;28;20140;-69
2022/08/24 01:53:02;;;;;;;19.67;17.70;;;19.90;99.90;;;;;;5034441;28;20057;-69
2022/08/24 01:55:28;;;;;;;18.67;16.83;;;20.00;99.90;;;;;;5034332;28;20049;-70
2022/08/24 01:57:54;;;;;;;19.13;17.27;;;19.90;99.90;;;;;;5034301;28;20385;-69
2022/08/24 02:00:20;;;;;;;20.40;18.20;;;20.00;99.90;;;;;;5034746;28;20125;-69
2022/08/24 02:02:45;;;;;;;18.43;16.57;;;19.90;99.90;;;;;;5034699;28;20548;-69
2022/08/24 02:05:14;;;;;;;19.43;17.17;;;19.90;99.90;;;;;;5034173;28;20072;-69
2022/08/24 02:07:40;;;;;;;18.97;17.10;;;19.90;99.90;;;;;;5016409;28;20033;-69
2022/08/24 02:10:09;;;;;;;20.43;18.37;;;19.90;99.90;;;;;;5034624;28;20382;-69
2022/08/24 02:12:36;;;;;;;19.60;17.70;;;19.80;99.90;;;;;;5033967;28;20045;-69
2022/08/24 02:15:05;;;;;;;21.60;18.87;;;19.80;99.90;;;;;;5034023;28;20111;-69
2022/08/24 02:17:30;;;;;;;20.07;18.07;;;19.80;99.90;;;;;;5033913;28;20068;-70
2022/08/24 02:19:56;;;;;;;21.30;17.47;;;19.80;99.90;;;;;;5034177;28;20473;-69
2022/08/24 02:22:22;;;;;;;19.83;17.83;;;19.80;99.90;;;;;;5033791;28;20064;-69
2022/08/24 02:24:47;;;;;;;20.13;18.03;;;19.80;99.90;;;;;;5033824;28;20220;-69
2022/08/24 02:27:15;;;;;;;20.00;17.90;;;19.80;99.90;;;;;;5033682;28;20496;-69
2022/08/24 02:29:42;;;;;;;22.00;19.03;;;19.80;99.90;;;;;;5033414;28;20045;-69
2022/08/24 02:32:09;;;;;;;23.27;19.80;;;19.80;99.90;;;;;;5033734;28;20397;-69
2022/08/24 02:34:35;;;;;;;21.93;19.33;;;19.80;99.90;;;;;;5033616;28;20124;-69
2022/08/24 02:37:01;;;;;;;22.07;19.87;;;19.70;99.90;;;;;;5034462;28;20037;-69
2022/08/24 02:39:28;;;;;;;19.53;17.67;;;19.70;99.90;;;;;;5033551;28;20367;-69
2022/08/24 02:41:53;;;;;;;21.13;18.93;;;19.70;99.90;;;;;;5033577;28;20057;-69
2022/08/24 02:44:19;;;;;;;22.90;19.10;;;19.70;99.90;;;;;;5033576;28;20128;-69
2022/08/24 02:46:45;;;;;;;19.00;17.20;;;19.70;99.90;;;;;;5015597;28;20049;-69
2022/08/24 02:49:11;;;;;;;20.13;18.13;;;19.70;99.90;;;;;;5033764;28;20061;-68
2022/08/24 02:51:40;;;;;;;22.00;19.80;;;19.70;99.90;;;;;;5033949;28;20057;-69
2022/08/24 02:54:06;;;;;;;20.53;18.53;;;19.60;99.90;;;;;;5033691;28;20045;-69
2022/08/24 02:56:33;;;;;;;21.60;19.40;;;19.60;99.90;;;;;;5033948;28;20128;-69
2022/08/24 02:58:59;;;;;;;21.27;19.17;;;19.60;99.90;;;;;;5016240;28;20052;-69
2022/08/24 03:01:27;;;;;;;22.03;19.73;;;19.60;99.90;;;;;;5033872;28;20099;-69
2022/08/24 03:03:53;;;;;;;20.53;18.43;;;19.60;99.90;;;;;;5033323;28;20049;-69
2022/08/24 03:06:19;;;;;;;20.80;18.57;;;19.60;99.90;;;;;;5016663;28;20366;-69
2022/08/24 03:08:45;;;;;;;20.83;18.73;;;19.50;99.90;;;;;;5033175;28;20044;-69
2022/08/24 03:11:11;;;;;;;19.30;17.37;;;19.50;99.90;;;;;;5033286;28;20405;-69
2022/08/24 03:13:37;;;;;;;20.33;18.27;;;19.50;99.90;;;;;;5033934;28;20045;-69
2022/08/24 03:16:04;;;;;;;19.00;17.10;;;19.40;99.90;;;;;;5033709;28;20136;-69
2022/08/24 03:18:31;;;;;;;21.37;17.90;;;19.50;99.90;;;;;;5033219;28;20048;-69
2022/08/24 03:20:59;;;;;;;19.33;17.43;;;19.50;99.90;;;;;;5033638;28;20140;-69
2022/08/24 03:23:26;;;;;;;21.67;19.33;;;19.40;99.90;;;;;;5033121;28;20089;-68
2022/08/24 03:25:53;;;;;;;22.93;18.90;;;19.40;99.90;;;;;;5015609;28;20046;-69
2022/08/24 03:28:20;;;;;;;20.67;18.60;;;19.40;99.90;;;;;;5033282;28;20053;-68
2022/08/24 03:30:47;;;;;;;20.20;17.97;;;19.40;99.90;;;;;;5032913;28;20500;-68
2022/08/24 03:33:13;;;;;;;20.20;18.17;;;19.40;99.90;;;;;;5033178;28;20053;-69
2022/08/24 03:35:39;;;;;;;19.77;17.80;;;19.40;99.90;;;;;;5033252;28;20052;-69
2022/08/24 03:38:06;;;;;;;20.63;18.43;;;19.40;99.90;;;;;;5015528;28;20478;-69
2022/08/24 03:40:32;;;;;;;19.10;17.13;;;19.40;99.90;;;;;;5015830;28;20053;-69
2022/08/24 03:42:59;;;;;;;19.77;17.93;;;19.40;99.90;;;;;;5032987;28;20106;-69
2022/08/24 03:45:25;;;;;;;19.83;17.83;;;19.30;99.90;;;;;;4999355;28;20065;-69
2022/08/24 03:47:52;;;;;;;22.17;19.83;;;19.30;99.90;;;;;;5032934;28;20087;-69
2022/08/24 03:50:19;;;;;;;21.07;18.87;;;19.30;99.90;;;;;;5032531;28;20154;-69
2022/08/24 03:52:45;;;;;;;21.40;19.17;;;19.30;99.90;;;;;;5032895;28;20057;-69
2022/08/24 03:55:12;;;;;;;19.60;17.80;;;19.30;99.90;;;;;;5032888;28;20041;-69
2022/08/24 03:57:38;;;;;;;18.67;16.97;;;19.30;99.90;;;;;;5032944;28;20073;-69
2022/08/24 04:00:08;;;;;;;21.03;17.77;;;19.20;99.90;;;;;;5032834;28;20151;-69
2022/08/24 04:02:34;;;;;;;19.97;18.07;;;19.30;99.90;;;;;;5032537;28;20485;-69
2022/08/24 04:05:00;;;;;;;20.67;18.57;;;19.20;99.90;;;;;;5036092;28;20045;-69
2022/08/24 04:07:26;;;;;;;21.63;19.37;;;19.20;99.90;;;;;;5036845;28;20044;-69
2022/08/24 04:09:52;;;;;;;19.43;17.33;;;19.20;99.90;;;;;;5036286;28;20091;-69
2022/08/24 04:12:18;;;;;;;22.10;19.83;;;19.20;99.90;;;;;;5036239;28;20046;-69
2022/08/24 04:14:43;;;;;;;22.27;19.97;;;19.20;99.90;;;;;;5036725;28;20041;-69
2022/08/24 04:17:11;;;;;;;19.97;17.87;;;19.10;99.90;;;;;;5036193;28;20045;-69
2022/08/24 04:19:37;;;;;;;20.50;18.47;;;19.20;99.90;;;;;;5036184;28;20048;-69
2022/08/24 04:22:03;;;;;;;21.57;19.53;;;19.10;99.90;;;;;;5036624;28;20045;-69
2022/08/24 04:24:30;;;;;;;22.93;20.73;;;19.20;99.90;;;;;;5036073;28;20129;-69
2022/08/24 04:26:56;;;;;;;21.07;19.17;;;19.10;99.90;;;;;;5036395;28;20132;-69
2022/08/24 04:29:21;;;;;;;22.97;20.70;;;19.10;99.90;;;;;;5018350;28;20099;-69
2022/08/24 04:31:47;;;;;;;24.20;20.53;;;19.10;99.90;;;;;;5035953;28;20041;-69
2022/08/24 04:34:14;;;;;;;22.93;20.83;;;19.10;99.90;;;;;;5035943;28;20064;-69
2022/08/24 04:36:42;;;;;;;23.93;21.73;;;19.00;99.90;;;;;;5035785;28;20049;-68
2022/08/24 04:39:08;;;;;;;23.90;21.57;;;19.00;99.90;;;;;;5035862;28;20128;-69
2022/08/24 04:41:34;;;;;;;24.27;21.97;;;19.00;99.90;;;;;;5035767;28;20128;-69
2022/08/24 04:44:02;;;;;;;24.87;22.37;;;19.00;99.90;;;;;;5035702;28;20056;-69
2022/08/24 04:46:28;;;;;;;26.30;23.63;;;19.00;99.90;;;;;;5036461;28;20049;-69
2022/08/24 04:48:54;;;;;;;25.97;23.57;;;19.00;99.90;;;;;;5035157;28;20056;-68
2022/08/24 04:51:21;;;;;;;25.00;22.67;;;19.00;99.90;;;;;;5035622;28;20099;-68
2022/08/24 04:53:49;;;;;;;24.07;21.67;;;18.90;99.90;;;;;;5035519;28;20133;-70
2022/08/24 04:56:22;;;;;;;26.20;23.43;;;18.90;99.90;;;;;;5035451;28;20041;-69
2022/08/24 04:58:49;;;;;;;26.77;24.17;;;18.90;99.90;;;;;;5035912;28;20041;-69
2022/08/24 05:01:18;;;;;;;25.37;23.03;;;18.90;99.90;;;;;;5034973;28;20050;-69
2022/08/24 05:03:47;;;;;;;27.43;25.00;;;18.90;99.90;;;;;;5035341;28;20552;-69
2022/08/24 05:06:14;;;;;;;29.30;26.40;;;18.90;99.90;;;;;;5035739;28;20111;-68
2022/08/24 05:08:40;;;;;;;30.00;27.00;;;19.00;99.90;;;;;;5035640;28;20358;-68
2022/08/24 05:11:07;;;;;;;30.10;27.30;;;19.00;99.90;;;;;;5035858;28;20132;-69
2022/08/24 05:13:33;;;;;;;31.37;28.03;;;19.00;99.90;;;;;;5035159;28;20041;-68
2022/08/24 05:15:59;;;;;;;30.43;27.43;;;19.00;99.90;;;;;;5034258;28;20158;-69
2022/08/24 05:18:28;;;;;;;30.67;27.77;;;19.00;99.90;;;;;;5035579;28;20037;-68
2022/08/24 05:20:55;;;;;;;32.20;29.03;;;19.00;99.90;;;;;;5034998;28;20100;-69
2022/08/24 05:23:21;;;;;;;33.07;29.67;;;19.10;99.90;;;;;;5035718;28;20041;-69
2022/08/24 05:25:47;;;;;;;30.77;27.67;;;19.10;99.90;;;;;;5017485;28;20053;-69
2022/08/24 05:28:13;;;;;;;28.73;26.03;;;19.10;99.90;;;;;;5034774;28;20622;-68
2022/08/24 05:30:39;;;;;;;27.97;25.10;;;19.10;99.90;;;;;;5034808;28;20056;-68
2022/08/24 05:33:05;;;;;;;29.43;26.67;;;19.20;99.90;;;;;;5035005;28;20132;-68
2022/08/24 05:35:35;;;;;;;28.33;25.63;;;19.20;99.90;;;;;;5034730;28;20045;-68
2022/08/24 05:38:01;;;;;;;29.23;26.37;;;19.20;99.90;;;;;;5034695;28;20041;-69
2022/08/24 05:40:26;;;;;;;29.73;26.73;;;19.30;99.90;;;;;;5017200;28;20052;-69
2022/08/24 05:42:52;;;;;;;28.83;26.20;;;19.30;99.90;;;;;;5035109;28;20084;-70
2022/08/24 05:45:18;;;;;;;28.37;25.63;;;19.30;99.90;;;;;;5034497;28;20064;-69
2022/08/24 05:47:44;;;;;;;28.87;26.03;;;19.30;99.90;;;;;;5034448;28;20531;-69
2022/08/24 05:50:10;;;;;;;29.47;26.77;;;19.40;99.90;;;;;;5034436;28;20493;-69
2022/08/24 05:52:35;;;;;;;30.00;27.30;;;19.40;99.90;;;;;;5034933;28;20045;-69
2022/08/24 05:55:02;;;;;;;31.30;28.20;;;19.50;99.90;;;;;;5034297;28;20041;-69
2022/08/24 05:57:32;;;;;;;30.50;27.47;;;19.60;99.90;;;;;;5034229;28;20065;-69
2022/08/24 05:59:58;;;;;;;30.63;27.73;;;19.60;99.90;;;;;;5034869;28;20081;-69
2022/08/24 06:02:24;;;;;;;29.30;26.20;;;19.80;99.90;;;;;;5034205;28;20091;-69
2022/08/24 06:04:50;;;;;;;27.90;25.07;;;20.10;99.90;;;;;;5034243;28;20085;-69
2022/08/24 06:07:17;;;;;;;23.70;21.50;;;21.10;99.90;;;;;;5034060;28;20038;-69
2022/08/24 06:09:43;;;;;;;27.07;24.57;;;22.40;99.90;;;;;;5034060;28;20049;-69
2022/08/24 06:12:10;;;;;;;25.83;22.93;;;23.60;99.90;;;;;;5016380;28;20124;-69
2022/08/24 06:14:37;;;;;;;23.77;21.20;;;24.60;99.90;;;;;;5034004;28;20097;-69
2022/08/24 06:17:08;;;;;;;22.87;20.67;;;25.60;99.90;;;;;;5033888;28;20045;-70
2022/08/24 06:19:34;;;;;;;23.07;19.67;;;26.50;99.90;;;;;;5033873;28;20544;-69
2022/08/24 06:22:00;;;;;;;21.47;19.33;;;27.20;99.90;;;;;;5034633;28;20042;-69
2022/08/24 06:27:21;;;;;;;19.73;17.58;;;29.20;82.50;;;;;;5034029;28;20049;-69
2022/08/24 06:29:59;;;;;;;19.17;17.17;;;29.40;97.10;;;;;;5034397;28;20052;-69
2022/08/24 06:32:25;;;;;;;19.43;17.30;;;30.10;79.50;;;;;;5016105;28;20489;-70
2022/08/24 06:34:55;;;;;;;17.07;15.37;;;30.60;86.60;;;;;;5016282;28;20135;-69
2022/08/24 06:37:25;;;;;;;17.65;15.35;;;31.10;74.50;;;;;;5033823;28;20504;-69
2022/08/24 06:39:51;;;;;;;17.23;14.73;;;31.60;73.60;;;;;;5016225;28;20052;-70
2022/08/24 06:42:17;;;;;;;16.50;14.23;;;32.10;69.10;;;;;;5033537;28;20048;-70
2022/08/24 06:44:43;;;;;;;15.98;14.27;;;32.40;65.20;;;;;;5016984;28;20054;-70
2022/08/24 06:47:10;;;;;;;13.98;11.73;;;32.60;62.60;;;;;;5033457;28;20128;-70
2022/08/24 06:49:36;;;;;;;13.02;11.73;;;32.90;60.90;;;;;;5015511;28;20068;-69
2022/08/24 06:52:04;;;;;;;15.40;12.82;;;33.20;59.40;;;;;;5033435;28;20136;-70
2022/08/24 06:54:30;;;;;;;15.00;10.98;;;33.30;57.90;;;;;;5033508;28;20041;-69
2022/08/24 06:56:57;;;;;;;14.35;12.20;;;33.80;56.80;;;;;;5034053;28;20071;-70
2022/08/24 06:59:25;;;;;;;13.38;10.57;;;;;;;;;;5033922;28;20128;-70
2022/08/24 07:01:52;;;;;;;11.68;10.48;;;34.00;90.00;;;;;;5033284;28;20057;-69
2022/08/24 07:04:18;;;;;;;13.38;10.13;;;34.40;53.30;;;;;;5015887;28;20045;-69
2022/08/24 07:06:44;;;;;;;12.95;11.48;;;34.60;52.70;;;;;;5033549;28;20093;-67
2022/08/24 07:09:11;;;;;;;13.55;10.05;;;35.10;47.80;;;;;;5033279;28;20442;-69
2022/08/24 07:11:36;;;;;;;10.93;9.52;;;35.10;50.90;;;;;;5032961;28;20569;-69
2022/08/24 07:14:03;;;;;;;10.15;8.35;;;35.20;50.30;;;;;;5033297;28;20132;-72
2022/08/24 07:16:29;;;;;;;11.05;8.25;;;;;;;;;;5033518;28;20061;-71
2022/08/24 07:18:55;;;;;;;10.15;8.38;;;35.70;48.30;;;;;;5015708;28;20045;-68
2022/08/24 07:21:22;;;;;;;12.98;8.82;;;;;;;;;;5015802;28;20053;-69
2022/08/24 07:23:49;;;;;;;12.93;8.88;;;;;;;;;;5033237;28;20085;-70
2022/08/24 07:26:18;;;;;;;10.77;7.60;;;;;;;;;;5015574;28;20049;-68
2022/08/24 07:28:43;;;;;;;14.18;8.43;;;36.70;45.10;;;;;;5033070;28;20049;-69
2022/08/24 07:31:12;;;;;;;13.50;8.15;;;;;;;;;;5033632;28;20132;-70
2022/08/24 07:33:38;;;;;;;10.65;7.50;;;;;;;;;;5033581;28;20050;-69
2022/08/24 07:36:05;;;;;;;11.20;8.45;;;;;;;;;;5033054;28;20049;-69
2022/08/24 07:38:31;;;;;;;11.13;8.05;;;;;;;;;;5033361;28;20053;-69
2022/08/24 07:40:58;;;;;;;10.85;8.10;;;;;;;;;;5036595;28;20053;-69
2022/08/24 07:43:25;;;;;;;10.45;7.88;;;;;;;;;;5036641;28;20045;-69
2022/08/24 07:45:51;;;;;;;11.75;8.25;;;;;;;;;;5036716;28;20050;-69
2022/08/24 07:48:17;;;;;;;10.73;8.02;;;;;;;;;;5036780;28;20045;-69
2022/08/24 07:50:44;;;;;;;10.23;7.53;;;;;;;;;;5016298;28;20068;-69
2022/08/24 07:53:10;;;;;;;9.68;7.60;;;37.30;43.40;;;;;;5017188;28;20045;-69
2022/08/24 07:55:35;;;;;;;12.55;8.35;;;37.40;43.90;;;;;;5016894;28;20489;-69
2022/08/24 07:58:01;;;;;;;11.55;7.78;;;36.80;44.30;;;;;;5017646;28;20049;-69
2022/08/24 08:00:27;;;;;;;9.15;7.00;;;36.10;45.00;;;;;;5016774;28;20050;-69
2022/08/24 08:02:53;;;;;;;10.02;7.18;;;35.30;45.80;;;;;;5016802;28;20061;-69
2022/08/24 08:05:22;;;;;;;9.93;7.68;;;34.60;46.70;;;;;;5016722;28;20042;-69
2022/08/24 08:07:49;;;;;;;8.15;6.68;;;33.90;47.70;;;;;;5016615;28;20410;-69
2022/08/24 08:10:15;;;;;;;10.48;7.22;;;33.40;48.60;;;;;;5016611;28;20077;-69
2022/08/24 08:12:41;;;;;;;14.15;7.53;;;33.00;49.30;;;;;;5017428;28;20046;-69
2022/08/24 08:15:08;;;;;;;9.52;7.20;;;32.60;50.10;;;;;;5017133;28;20481;-69
2022/08/24 08:17:36;;;;;;;10.00;7.13;;;;;;;;;;5016462;28;20090;-69
2022/08/24 08:20:04;;;;;;;11.55;6.45;;;31.80;52.70;;;;;;5016491;28;20121;-68
2022/08/24 08:25:14;;;;;;;7.40;5.40;;;31.40;54.00;;;;;;5017193;28;20081;-68
2022/08/24 08:27:40;;;;;;;7.80;5.15;;;31.00;55.10;;;;;;5016586;28;20419;-68
2022/08/24 08:30:06;;;;;;;8.00;4.95;;;30.90;60.10;;;;;;5017086;28;20458;-68
2022/08/24 08:32:32;;;;;;;9.55;5.20;;;30.70;56.70;;;;;;5016210;28;20042;-68
2022/08/24 08:34:58;;;;;;;11.27;6.13;;;30.50;65.00;;;;;;5016771;28;20428;-69
2022/08/24 08:37:24;;;;;;;8.00;5.43;;;30.40;58.00;;;;;;5016143;28;20132;-68
2022/08/24 08:39:50;;;;;;;10.02;6.32;;;30.30;59.10;;;;;;5016311;28;20125;-68
2022/08/24 08:42:28;;;;;;;9.00;6.15;;;30.10;61.90;;;;;;5016065;28;20050;-69
2022/08/24 08:45:18;;;;;;;7.65;6.35;;;30.00;61.40;;;;;;5016032;28;20495;-69
2022/08/24 08:47:49;;;;;;;8.90;6.53;;;29.80;63.00;;;;;;5015867;28;20487;-69
2022/08/24 08:50:24;;;;;;;8.45;5.70;;;29.50;64.40;;;;;;5014294;28;20060;-69
2022/08/24 08:53:38;;;;;;;10.48;6.95;;;29.30;66.60;;;;;;5016730;28;20080;-68
2022/08/24 08:56:33;;;;;;;9.75;6.57;;;29.20;67.80;;;;;;4999340;28;20060;-69
2022/08/24 08:59:14;;;;;;;9.80;6.47;;;29.00;69.50;;;;;;5016302;28;20386;-68
2022/08/24 09:02:07;;;;;;;10.13;5.88;;;28.90;69.80;;;;;;5016431;28;20492;-68
2022/08/24 09:04:49;;;;;;;9.57;7.65;;;28.90;70.70;;;;;;5015617;28;20050;-69
2022/08/24 09:07:30;;;;;;;9.60;7.78;;;28.80;71.00;;;;;;5016131;28;20033;-71
2022/08/24 09:09:58;;;;;;;11.20;7.70;;;28.70;72.30;;;;;;5015971;28;20049;-69
2022/08/24 09:13:03;;;;;;;10.55;6.72;;;28.70;72.60;;;;;;5015416;28;20042;-69
2022/08/24 09:15:41;;;;;;;9.38;6.40;;;28.60;74.40;;;;;;5015429;28;20068;-68
2022/08/24 09:18:40;;;;;;;11.05;6.53;;;28.50;75.10;;;;;;5016056;28;20038;-69
2022/08/24 09:21:30;;;;;;;9.85;5.95;;;28.50;75.60;;;;;;5015996;28;20083;-69
2022/08/24 09:24:18;;;;;;;7.85;6.07;;;28.40;77.60;;;;;;5015199;28;20050;-70
2022/08/24 09:27:04;;;;;;;8.00;5.30;;;28.30;77.00;;;;;;5014979;28;20091;-70
2022/08/24 09:29:54;;;;;;;9.18;5.72;;;28.30;78.60;;;;;;5015247;28;20532;-69
2022/08/24 09:32:53;;;;;;;7.60;4.80;;;28.30;78.90;;;;;;5015208;28;20046;-69
2022/08/24 09:35:38;;;;;;;8.85;5.32;;;28.20;81.60;;;;;;5014416;28;20419;-69
2022/08/24 09:38:28;;;;;;;8.68;4.00;;;28.20;81.40;;;;;;5015055;28;20037;-69
2022/08/24 09:41:35;;;;;;;7.70;4.63;;;28.20;82.80;;;;;;5015642;28;20103;-69
2022/08/24 09:44:42;;;;;;;9.02;5.32;;;28.20;82.50;;;;;;5014991;28;20042;-69
2022/08/24 09:47:38;;;;;;;8.25;4.60;;;28.20;81.30;;;;;;4976578;28;20085;-69
2022/08/24 09:50:27;;;;;;;7.82;4.90;;;28.10;83.90;;;;;;4992727;28;20106;-69
2022/08/24 09:53:11;;;;;;;7.28;3.63;;;28.10;82.90;;;;;;5011337;28;20076;-69
2022/08/24 09:56:00;;;;;;;6.07;3.40;;;28.10;83.30;;;;;;5014671;28;20058;-68
2022/08/24 09:58:36;;;;;;;5.82;3.13;;;28.10;83.20;;;;;;5014576;28;20044;-69
2022/08/24 10:01:59;;;;;;;7.93;3.38;;;28.00;83.10;;;;;;5014190;28;20057;-68
2022/08/24 10:04:31;;;;;;;6.07;3.63;;;28.00;82.90;;;;;;4992657;28;20534;-68
2022/08/24 10:07:35;;;;;;;8.38;4.72;;;27.90;83.00;;;;;;4992548;28;20050;-68
2022/08/24 10:10:12;;;;;;;7.07;3.17;;;27.80;83.30;;;;;;5009102;28;20141;-69
2022/08/24 10:12:51;;;;;;;7.80;3.60;;;27.80;84.80;;;;;;5014702;28;20042;-68
2022/08/24 10:15:31;;;;;;;7.72;3.08;;;27.70;84.60;;;;;;5014345;28;20046;-68
2022/08/24 10:18:26;;;;;;;7.47;3.30;;;27.70;87.20;;;;;;5014347;28;20048;-69
2022/08/24 10:21:04;;;;;;;9.27;3.35;;;27.80;86.00;;;;;;5013170;28;20050;-69
2022/08/24 10:23:39;;;;;;;4.95;2.40;;;27.80;88.20;;;;;;5014129;28;20061;-68
2022/08/24 10:26:24;;;;;;;4.97;2.40;;;27.90;87.80;;;;;;5014249;28;20539;-68
2022/08/24 10:28:59;;;;;;;6.05;2.40;;;27.90;87.60;;;;;;5014054;28;20050;-68
2022/08/24 10:32:04;;;;;;;7.03;2.60;;;27.90;86.20;;;;;;5014243;28;20437;-69
2022/08/24 10:34:57;;;;;;;6.30;3.20;;;27.80;86.90;;;;;;5013313;28;20097;-69
2022/08/24 10:37:31;;;;;;;8.57;3.72;;;27.80;87.20;;;;;;5014819;28;20176;-69
2022/08/24 10:40:24;;;;;;;8.13;3.10;;;27.80;87.70;;;;;;5014505;28;20050;-69
2022/08/24 10:43:34;;;;;;;5.00;2.63;;;27.80;89.40;;;;;;5013807;28;20422;-69
2022/08/24 10:46:27;;;;;;;5.65;2.53;;;27.80;88.90;;;;;;5013854;28;20052;-69
2022/08/24 10:49:26;;;;;;;7.18;2.10;;;27.70;87.20;;;;;;5013977;28;20042;-67
2022/08/24 10:52:21;;;;;;;5.80;3.10;;;27.70;88.80;;;;;;5014264;28;20442;-68
2022/08/24 10:54:47;;;;;;;11.20;2.83;;;27.70;89.10;;;;;;5010989;28;20116;-68
2022/08/24 10:57:35;;;;;;;5.57;2.90;;;27.70;89.30;;;;;;5013859;28;20430;-68
2022/08/24 11:00:14;;;;;;;8.13;3.35;;;27.70;90.10;;;;;;5013801;28;20049;-68
2022/08/24 11:02:44;;;;;;;7.63;3.70;;;27.80;90.30;;;;;;5013332;28;20449;-70
2022/08/24 11:05:34;;;;;;;10.73;4.43;;;27.70;99.80;;;;;;5013478;28;20451;-68
2022/08/24 11:08:03;;;;;;;7.27;3.70;;;27.50;99.90;;;;;;5013764;28;20042;-68
2022/08/24 11:10:35;;;;;;;9.53;3.80;;;27.30;99.90;;;;;;5013576;28;20404;-70
2022/08/24 11:13:16;;;;;;;5.33;3.07;;;27.20;99.90;;;;;;5013588;28;20382;-69
2022/08/24 11:15:50;;;;;;;6.90;3.50;;;27.10;99.90;;;;;;5016945;28;20049;-69
2022/08/24 11:18:16;;;;;;;6.13;4.17;;;26.90;99.90;;;;;;5017411;28;20129;-69
2022/08/24 11:20:45;;;;;;;7.90;3.10;;;26.80;99.90;;;;;;5017551;28;20104;-69
2022/08/24 11:23:22;;;;;;;9.60;4.10;;;26.80;99.90;;;;;;5016516;28;20053;-67
2022/08/24 11:26:12;;;;;;;8.50;3.63;;;26.80;99.90;;;;;;5016511;28;20545;-67
2022/08/24 11:28:46;;;;;;;6.00;3.60;;;26.70;99.90;;;;;;5017340;28;20046;-67
2022/08/24 11:31:27;;;;;;;;;;;26.70;99.90;;;;;;5018082;28;20045;-67
2022/08/24 11:33:59;;;;;;;6.03;3.57;;;26.70;99.90;;;;;;5017309;28;19925;-68
2022/08/24 11:36:28;;;;;;;9.70;3.53;;;26.60;99.90;;;;;;5017838;28;20052;-68
2022/08/24 11:39:26;;;;;;;5.03;3.50;;;26.70;99.90;;;;;;5017333;28;20081;-67
2022/08/24 11:42:25;;;;;;;6.43;3.83;;;26.80;99.90;;;;;;5012724;28;20054;-69
2022/08/24 11:45:11;;;;;;;7.47;4.50;;;26.80;99.90;;;;;;5015797;28;20456;-69
2022/08/24 11:47:47;;;;;;;4.87;2.77;;;26.70;99.90;;;;;;5016946;28;20478;-69
2022/08/24 11:51:00;;;;;;;6.43;3.30;;;26.60;99.90;;;;;;5027855;28;20057;-69
2022/08/24 11:53:52;;;;;;;8.17;3.40;;;26.60;99.90;;;;;;4956776;29;20101;-69
2022/08/24 11:56:33;;;;;;;6.03;3.13;;;26.70;99.90;;;;;;5035998;28;20061;-69
2022/08/24 11:59:18;;;;;;;7.93;4.60;;;26.70;99.90;;;;;;5037562;28;20045;-69
2022/08/24 12:01:52;;;;;;;6.50;2.67;;;26.70;99.90;;;;;;5036570;28;20136;-69
2022/08/24 12:04:24;;;;;;;7.75;2.75;;;26.60;99.90;;;;;;5037367;28;20053;-69
2022/08/24 12:07:27;;;;;;;6.07;3.40;;;26.60;99.90;;;;;;5036842;28;20442;-69
2022/08/24 12:10:11;;;;;;;5.83;3.10;;;26.60;99.90;;;;;;5036463;28;20635;-70
2022/08/24 12:13:04;;;;;;;5.28;2.42;;;26.60;99.90;;;;;;5036945;28;20057;-70
2022/08/24 12:16:05;;;;;;;4.30;2.67;;;26.60;99.90;;;;;;5036394;28;20071;-68
2022/08/24 12:18:54;;;;;;;4.37;2.20;;;26.60;99.90;;;;;;4994189;28;20052;-69
2022/08/24 12:21:23;;;;;;;3.67;2.30;;;26.70;99.90;;;;;;5036859;28;20053;-69
2022/08/24 12:23:55;;;;;;;2.90;1.60;;;26.70;99.90;;;;;;5036241;28;20068;-69
2022/08/24 12:26:28;;;;;;;4.60;1.50;;;26.70;99.90;;;;;;5002137;28;20114;-69
2022/08/24 12:29:00;;;;;;;3.83;2.03;;;26.70;99.90;;;;;;5036017;28;20041;-69
2022/08/24 12:31:38;;;;;;;5.40;2.23;;;26.70;99.90;;;;;;5036590;28;20081;-69
2022/08/24 12:34:13;;;;;;;5.00;1.83;;;26.70;99.90;;;;;;5036897;28;20050;-69
2022/08/24 12:37:05;;;;;;;4.33;2.00;;;26.70;99.90;;;;;;5036766;28;20179;-69
2022/08/24 12:39:40;;;;;;;2.37;1.50;;;26.70;99.90;;;;;;5035976;28;20048;-69
2022/08/24 12:42:19;;;;;;;5.43;1.93;;;26.80;99.90;;;;;;5036217;28;20057;-69
2022/08/24 12:44:51;;;;;;;4.30;1.50;;;26.70;99.90;;;;;;5018283;28;20128;-70
2022/08/24 12:47:31;;;;;;;3.27;1.63;;;26.70;99.90;;;;;;5036528;28;20077;-69
2022/08/24 12:50:09;;;;;;;2.40;1.30;;;26.60;99.90;;;;;;5036278;28;20057;-70
2022/08/24 12:53:01;;;;;;;2.10;1.20;;;26.70;99.90;;;;;;5018550;28;20068;-69
2022/08/24 12:55:49;;;;;;;2.43;1.30;;;26.70;99.90;;;;;;5035930;28;20434;-68
2022/08/24 12:58:33;;;;;;;2.13;1.10;;;26.70;99.90;;;;;;5036128;28;20397;-69
2022/08/24 13:01:03;;;;;;;2.90;1.40;;;26.70;99.90;;;;;;5001738;28;20052;-68
2022/08/24 13:03:36;;;;;;;1.97;1.17;;;26.70;99.90;;;;;;5017860;28;20131;-69
2022/08/24 13:06:10;;;;;;;2.70;1.03;;;26.70;99.90;;;;;;5017967;28;20041;-69
2022/08/24 13:08:43;;;;;;;3.30;1.13;;;26.80;99.90;;;;;;5036504;28;20068;-69
2022/08/24 13:11:27;;;;;;;3.97;1.37;;;26.80;99.90;;;;;;5001874;28;20045;-69
2022/08/24 13:13:56;;;;;;;2.70;1.27;;;26.80;99.90;;;;;;5017854;28;20053;-69
2022/08/24 13:16:46;;;;;;;2.13;1.20;;;26.80;99.90;;;;;;5035314;28;20054;-69